This is the latest recevied weather packets stored in our database for station/object W8CEN. If no packets are shown the sender has not sent any weather packets the latest 1 day(s).
| Time | Temp. | Humidity | Pressure | Rain* | Wind** | Luminosity | Snow |
|---|---|---|---|---|---|---|---|
| 1778096379 | 15.56° C | 38% | 991.1 hPa | 0 mm | - | 432 W/m² | - |
| 1778096076 | 15.56° C | 38% | 991 hPa | 0 mm | - | 421 W/m² | - |
| 1778092134 | 16.11° C | 35% | 990.9 hPa | 0 mm | - | 540 W/m² | - |
| 1778087892 | 15.56° C | 43% | 991.1 hPa | 0 mm | - | 593 W/m² | - |
| 1778087589 | 15.56° C | 37% | 991.3 hPa | 0 mm | - | 699 W/m² | - |
| 1778087287 | 15° C | 39% | 991.5 hPa | 0 mm | - | 1044 W/m² | - |
| 1778086983 | 15.56° C | 42% | 991.3 hPa | 0 mm | - | 300 W/m² | - |
| 1778086682 | 15.56° C | 41% | 991.4 hPa | 0 mm | - | 284 W/m² | - |
| 1778086379 | 16.11° C | 42% | 991.2 hPa | 0 mm | - | 258 W/m² | - |
| 1778085164 | 15.56° C | 41% | 991.4 hPa | 0 mm | - | 861 W/m² | - |
| 1778082742 | 16.11° C | 41% | 991.4 hPa | 0 mm | - | 841 W/m² | - |
| 1778080696 | 14.44° C | 52% | 991.2 hPa | 0 mm | - | 702 W/m² | - |
| 1778078574 | 13.89° C | 47% | 990.8 hPa | 0 mm | - | 617 W/m² | - |
| 1778078272 | 14.44° C | 56% | 990.8 hPa | 0 mm | - | 594 W/m² | - |
| 1778077365 | 14.44° C | 55% | 990.7 hPa | 0 mm | - | 588 W/m² | - |
| 1778077063 | 13.89° C | 59% | 990.7 hPa | 0 mm | - | 595 W/m² | - |
| 1778076761 | 13.33° C | 56% | 990.6 hPa | 0 mm | - | 577 W/m² | - |
| 1778076155 | 12.78° C | 60% | 990.7 hPa | 0 mm | - | 468 W/m² | - |
| 1778075548 | 12.22° C | 63% | 990.3 hPa | 0 mm | - | 200 W/m² | - |
| 1778074639 | 12.78° C | 66% | 990.1 hPa | 0 mm | - | 191 W/m² | - |
| 1778074335 | 12.78° C | 68% | 990.1 hPa | 0 mm | - | 200 W/m² | - |
| 1778073729 | 11.67° C | 76% | 990 hPa | 0 mm | - | 225 W/m² | - |
| 1778073123 | 10.56° C | 79% | 989.8 hPa | 0 mm | - | 197 W/m² | - |
| 1778072820 | 10.56° C | 81% | 989.8 hPa | 0 mm | - | 110 W/m² | - |
| 1778070704 | 8.33° C | 93% | 989.3 hPa | 0 mm | - | 206 W/m² | - |
* Rain latest hour (hover to see other rain measurements)
** Current wind speed in m/s (hover to see current wind gust speed)